sensor_id;sensor_type;location;lat;lon;timestamp;pressure;altitude;pressure_sealevel;temperature;humidity
13934;BME280;7039;52.168;9.866;2023-04-06T00:01:56;100961.19;;;2.71;66.51
13934;BME280;7039;52.168;9.866;2023-04-06T00:04:22;100958.56;;;2.78;66.46
13934;BME280;7039;52.168;9.866;2023-04-06T00:06:49;100961.19;;;2.73;66.63
13934;BME280;7039;52.168;9.866;2023-04-06T00:09:16;100961.09;;;2.81;66.57
13934;BME280;7039;52.168;9.866;2023-04-06T00:11:42;100957.66;;;2.82;66.23
13934;BME280;7039;52.168;9.866;2023-04-06T00:14:09;100953.41;;;2.78;66.05
13934;BME280;7039;52.168;9.866;2023-04-06T00:16:35;100950.84;;;2.76;66.07
13934;BME280;7039;52.168;9.866;2023-04-06T00:19:03;100958.56;;;2.76;66.24
13934;BME280;7039;52.168;9.866;2023-04-06T00:21:30;100953.41;;;2.76;66.08
13934;BME280;7039;52.168;9.866;2023-04-06T00:23:57;100944.03;;;2.69;66.16
13934;BME280;7039;52.168;9.866;2023-04-06T00:26:23;100951.06;;;2.55;66.45
13934;BME280;7039;52.168;9.866;2023-04-06T00:28:50;100936.72;;;2.27;67.30
13934;BME280;7039;52.168;9.866;2023-04-06T00:31:17;100940.00;;;2.42;67.16
13934;BME280;7039;52.168;9.866;2023-04-06T00:33:44;100944.28;;;2.43;67.21
13934;BME280;7039;52.168;9.866;2023-04-06T00:36:12;100938.31;;;2.41;67.33
13934;BME280;7039;52.168;9.866;2023-04-06T00:38:39;100931.41;;;2.43;67.44
13934;BME280;7039;52.168;9.866;2023-04-06T00:41:05;100935.72;;;2.42;67.38
13934;BME280;7039;52.168;9.866;2023-04-06T00:43:32;100940.84;;;2.44;66.76
13934;BME280;7039;52.168;9.866;2023-04-06T00:45:59;100939.88;;;2.56;66.50
13934;BME280;7039;52.168;9.866;2023-04-06T00:48:25;100929.66;;;2.48;66.79
13934;BME280;7039;52.168;9.866;2023-04-06T00:50:52;100929.63;;;2.53;66.56
13934;BME280;7039;52.168;9.866;2023-04-06T00:53:20;100927.88;;;2.55;66.54
13934;BME280;7039;52.168;9.866;2023-04-06T00:55:46;100926.91;;;2.66;66.34
13934;BME280;7039;52.168;9.866;2023-04-06T00:58:13;100931.22;;;2.64;65.98
13934;BME280;7039;52.168;9.866;2023-04-06T01:00:40;100930.44;;;2.56;66.21
13934;BME280;7039;52.168;9.866;2023-04-06T01:03:07;100929.53;;;2.59;66.11
13934;BME280;7039;52.168;9.866;2023-04-06T01:05:34;100922.66;;;2.62;66.15
13934;BME280;7039;52.168;9.866;2023-04-06T01:08:05;100924.34;;;2.66;65.71
13934;BME280;7039;52.168;9.866;2023-04-06T01:10:33;100910.72;;;2.54;65.84
13934;BME280;7039;52.168;9.866;2023-04-06T01:12:59;100913.34;;;2.50;65.68
13934;BME280;7039;52.168;9.866;2023-04-06T01:15:27;100909.03;;;2.51;66.15
13934;BME280;7039;52.168;9.866;2023-04-06T01:17:54;100908.97;;;2.57;66.06
13934;BME280;7039;52.168;9.866;2023-04-06T01:20:21;100902.19;;;2.50;66.19
13934;BME280;7039;52.168;9.866;2023-04-06T01:22:49;100906.50;;;2.48;66.23
13934;BME280;7039;52.168;9.866;2023-04-06T01:25:16;100902.19;;;2.50;66.25
13934;BME280;7039;52.168;9.866;2023-04-06T01:27:42;100908.19;;;2.50;66.01
13934;BME280;7039;52.168;9.866;2023-04-06T01:30:10;100899.66;;;2.42;65.84
13934;BME280;7039;52.168;9.866;2023-04-06T01:32:37;100897.13;;;2.41;66.09
13934;BME280;7039;52.168;9.866;2023-04-06T01:35:03;100900.50;;;2.44;66.26
13934;BME280;7039;52.168;9.866;2023-04-06T01:37:30;100903.13;;;2.40;66.32
13934;BME280;7039;52.168;9.866;2023-04-06T01:39:59;100910.75;;;2.49;66.66
13934;BME280;7039;52.168;9.866;2023-04-06T01:42:25;100907.25;;;2.56;66.02
13934;BME280;7039;52.168;9.866;2023-04-06T01:44:53;100902.94;;;2.61;66.07
13934;BME280;7039;52.168;9.866;2023-04-06T01:47:19;100897.03;;;2.48;66.52
13934;BME280;7039;52.168;9.866;2023-04-06T01:49:46;100892.78;;;2.43;66.82
13934;BME280;7039;52.168;9.866;2023-04-06T01:52:13;100900.47;;;2.47;66.67
13934;BME280;7039;52.168;9.866;2023-04-06T01:54:40;100902.19;;;2.48;66.37
13934;BME280;7039;52.168;9.866;2023-04-06T01:57:09;100892.91;;;2.32;66.94
13934;BME280;7039;52.168;9.866;2023-04-06T01:59:36;100894.59;;;2.33;66.68
13934;BME280;7039;52.168;9.866;2023-04-06T02:02:02;100897.13;;;2.36;66.71
13934;BME280;7039;52.168;9.866;2023-04-06T02:04:29;100898.88;;;2.37;66.69
13934;BME280;7039;52.168;9.866;2023-04-06T02:06:56;100899.66;;;2.42;66.55
13934;BME280;7039;52.168;9.866;2023-04-06T02:09:22;100892.03;;;2.32;66.80
13934;BME280;7039;52.168;9.866;2023-04-06T02:11:49;100892.88;;;2.37;66.36
13934;BME280;7039;52.168;9.866;2023-04-06T02:14:17;100897.94;;;2.44;66.14
13934;BME280;7039;52.168;9.866;2023-04-06T02:16:44;100893.69;;;2.42;65.93
13934;BME280;7039;52.168;9.866;2023-04-06T02:19:10;100892.91;;;2.32;65.77
13934;BME280;7039;52.168;9.866;2023-04-06T02:21:37;100889.63;;;2.15;66.00
13934;BME280;7039;52.168;9.866;2023-04-06T02:24:04;100895.84;;;1.87;67.56
13934;BME280;7039;52.168;9.866;2023-04-06T02:26:31;100883.09;;;1.72;68.25
13934;BME280;7039;52.168;9.866;2023-04-06T02:28:57;100884.66;;;1.98;67.65
13934;BME280;7039;52.168;9.866;2023-04-06T02:31:25;100888.75;;;2.16;67.35
13934;BME280;7039;52.168;9.866;2023-04-06T02:33:52;100887.84;;;2.21;67.02
13934;BME280;7039;52.168;9.866;2023-04-06T02:36:18;100884.47;;;2.16;66.69
13934;BME280;7039;52.168;9.866;2023-04-06T02:38:45;100889.59;;;2.21;66.78
13934;BME280;7039;52.168;9.866;2023-04-06T02:41:11;100883.69;;;2.09;67.10
13934;BME280;7039;52.168;9.866;2023-04-06T02:43:38;100884.53;;;2.08;67.08
13934;BME280;7039;52.168;9.866;2023-04-06T02:46:05;100883.00;;;1.87;67.54
13934;BME280;7039;52.168;9.866;2023-04-06T02:48:33;100881.22;;;1.93;67.74
13934;BME280;7039;52.168;9.866;2023-04-06T02:51:01;100876.16;;;1.86;67.86
13934;BME280;7039;52.168;9.866;2023-04-06T02:53:27;100868.47;;;1.80;67.89
13934;BME280;7039;52.168;9.866;2023-04-06T02:55:54;100876.16;;;1.83;67.86
13934;BME280;7039;52.168;9.866;2023-04-06T02:58:21;100875.31;;;1.83;68.17
13934;BME280;7039;52.168;9.866;2023-04-06T03:00:48;100870.22;;;1.77;68.30
13934;BME280;7039;52.168;9.866;2023-04-06T03:03:14;100866.78;;;1.75;68.12
13934;BME280;7039;52.168;9.866;2023-04-06T03:05:42;100861.75;;;1.62;68.75
13934;BME280;7039;52.168;9.866;2023-04-06T03:08:09;100864.28;;;1.67;68.60
13934;BME280;7039;52.168;9.866;2023-04-06T03:10:35;100862.59;;;1.64;68.43
13934;BME280;7039;52.168;9.866;2023-04-06T03:13:02;100863.44;;;1.63;68.26
13934;BME280;7039;52.168;9.866;2023-04-06T03:15:28;100855.16;;;1.23;69.15
13934;BME280;7039;52.168;9.866;2023-04-06T03:17:55;100861.91;;;1.41;69.16
13934;BME280;7039;52.168;9.866;2023-04-06T03:20:21;100862.59;;;1.64;68.52
13934;BME280;7039;52.168;9.866;2023-04-06T03:22:49;100865.97;;;1.71;68.46
13934;BME280;7039;52.168;9.866;2023-04-06T03:25:16;100869.34;;;1.76;68.29
13934;BME280;7039;52.168;9.866;2023-04-06T03:27:43;100865.97;;;1.70;68.09
13934;BME280;7039;52.168;9.866;2023-04-06T03:30:10;100860.00;;;1.67;68.33
13934;BME280;7039;52.168;9.866;2023-04-06T03:32:36;100869.47;;;1.64;68.33
13934;BME280;7039;52.168;9.866;2023-04-06T03:35:04;100862.69;;;1.51;68.99
13934;BME280;7039;52.168;9.866;2023-04-06T03:37:30;100861.00;;;1.45;69.24
13934;BME280;7039;52.168;9.866;2023-04-06T03:39:58;100860.13;;;1.49;69.14
13934;BME280;7039;52.168;9.866;2023-04-06T03:42:25;100859.31;;;1.42;69.50
13934;BME280;7039;52.168;9.866;2023-04-06T03:44:52;100861.88;;;1.44;69.49
13934;BME280;7039;52.168;9.866;2023-04-06T03:47:18;100857.66;;;1.32;69.53
13934;BME280;7039;52.168;9.866;2023-04-06T03:49:45;100857.63;;;1.34;69.72
13934;BME280;7039;52.168;9.866;2023-04-06T03:52:12;100866.16;;;1.42;69.46
13934;BME280;7039;52.168;9.866;2023-04-06T03:54:38;100863.59;;;1.40;69.76
13934;BME280;7039;52.168;9.866;2023-04-06T03:57:06;100867.06;;;1.33;70.01
13934;BME280;7039;52.168;9.866;2023-04-06T03:59:33;100861.06;;;1.36;69.75
13934;BME280;7039;52.168;9.866;2023-04-06T04:02:00;100868.78;;;1.37;69.49
13934;BME280;7039;52.168;9.866;2023-04-06T04:04:26;100861.84;;;1.49;69.10
13934;BME280;7039;52.168;9.866;2023-04-06T04:06:53;100864.41;;;1.50;68.58
13934;BME280;7039;52.168;9.866;2023-04-06T04:09:20;100863.50;;;1.56;68.47
13934;BME280;7039;52.168;9.866;2023-04-06T04:11:46;100868.63;;;1.62;68.33
13934;BME280;7039;52.168;9.866;2023-04-06T04:14:14;100873.69;;;1.73;68.03
13934;BME280;7039;52.168;9.866;2023-04-06T04:16:41;100872.91;;;1.60;68.11
13934;BME280;7039;52.168;9.866;2023-04-06T04:19:08;100878.94;;;1.54;67.67
13934;BME280;7039;52.168;9.866;2023-04-06T04:21:42;100872.22;;;1.29;68.35
13934;BME280;7039;52.168;9.866;2023-04-06T04:24:09;100876.59;;;1.14;69.25
13934;BME280;7039;52.168;9.866;2023-04-06T04:26:36;100876.56;;;1.16;69.27
13934;BME280;7039;52.168;9.866;2023-04-06T04:29:03;100868.91;;;1.13;69.33
13934;BME280;7039;52.168;9.866;2023-04-06T04:31:32;100871.38;;;1.27;69.59
13934;BME280;7039;52.168;9.866;2023-04-06T04:34:14;100876.63;;;1.07;69.98
13934;BME280;7039;52.168;9.866;2023-04-06T04:36:41;100869.78;;;1.04;69.77
13934;BME280;7039;52.168;9.866;2023-04-06T04:39:07;100864.75;;;0.82;70.50
13934;BME280;7039;52.168;9.866;2023-04-06T04:41:34;100867.34;;;0.73;70.91
13934;BME280;7039;52.168;9.866;2023-04-06T04:44:01;100871.59;;;0.82;70.91
13934;BME280;7039;52.168;9.866;2023-04-06T04:46:27;100873.22;;;1.01;70.52
13934;BME280;7039;52.168;9.866;2023-04-06T04:48:56;100881.72;;;1.17;70.27
13934;BME280;7039;52.168;9.866;2023-04-06T04:51:22;100877.38;;;1.30;69.81
13934;BME280;7039;52.168;9.866;2023-04-06T04:53:49;100881.66;;;1.34;69.53
13934;BME280;7039;52.168;9.866;2023-04-06T04:56:16;100873.88;;;1.42;69.51
13934;BME280;7039;52.168;9.866;2023-04-06T04:58:43;100879.81;;;1.52;69.05
13934;BME280;7039;52.168;9.866;2023-04-06T05:01:09;100882.41;;;1.49;68.85
13934;BME280;7039;52.168;9.866;2023-04-06T05:03:36;100886.72;;;1.43;68.96
13934;BME280;7039;52.168;9.866;2023-04-06T05:06:05;100884.19;;;1.39;69.17
13934;BME280;7039;52.168;9.866;2023-04-06T05:08:33;100883.22;;;1.55;68.84
13934;BME280;7039;52.168;9.866;2023-04-06T05:10:59;100881.47;;;1.62;68.58
13934;BME280;7039;52.168;9.866;2023-04-06T05:13:26;100880.63;;;1.60;68.87
13934;BME280;7039;52.168;9.866;2023-04-06T05:15:53;100880.56;;;1.71;68.55
13934;BME280;7039;52.168;9.866;2023-04-06T05:18:19;100880.59;;;1.64;68.30
13934;BME280;7039;52.168;9.866;2023-04-06T05:20:46;100878.84;;;1.71;68.09
13934;BME280;7039;52.168;9.866;2023-04-06T05:23:14;100879.81;;;1.53;68.79
13934;BME280;7039;52.168;9.866;2023-04-06T05:25:41;100876.38;;;1.50;68.87
13934;BME280;7039;52.168;9.866;2023-04-06T05:28:08;100879.00;;;1.48;69.09
13934;BME280;7039;52.168;9.866;2023-04-06T05:30:34;100886.66;;;1.53;68.91
13934;BME280;7039;52.168;9.866;2023-04-06T05:33:02;100879.75;;;1.61;69.05
13934;BME280;7039;52.168;9.866;2023-04-06T05:35:28;100874.72;;;1.44;69.61
13934;BME280;7039;52.168;9.866;2023-04-06T05:37:55;100873.13;;;1.28;69.42
13934;BME280;7039;52.168;9.866;2023-04-06T05:40:23;100875.69;;;1.26;69.85
13934;BME280;7039;52.168;9.866;2023-04-06T05:42:50;100877.34;;;1.36;70.05
13934;BME280;7039;52.168;9.866;2023-04-06T05:45:17;100881.56;;;1.46;70.14
13934;BME280;7039;52.168;9.866;2023-04-06T05:47:44;100874.63;;;1.58;69.60
13934;BME280;7039;52.168;9.866;2023-04-06T05:50:10;100876.25;;;1.71;69.61
13934;BME280;7039;52.168;9.866;2023-04-06T05:52:37;100878.72;;;1.85;68.49
13934;BME280;7039;52.168;9.866;2023-04-06T05:55:04;100879.41;;;2.05;68.13
13934;BME280;7039;52.168;9.866;2023-04-06T05:57:32;100888.69;;;2.23;67.20
13934;BME280;7039;52.168;9.866;2023-04-06T05:59:59;100882.59;;;2.34;66.65
13934;BME280;7039;52.168;9.866;2023-04-06T06:02:26;100885.84;;;2.51;65.65
13934;BME280;7039;52.168;9.866;2023-04-06T06:04:53;100871.84;;;2.77;64.50
13934;BME280;7039;52.168;9.866;2023-04-06T06:07:19;100879.34;;;2.95;63.28
13934;BME280;7039;52.168;9.866;2023-04-06T06:09:46;100877.34;;;3.19;61.78
13934;BME280;7039;52.168;9.866;2023-04-06T06:12:12;100885.66;;;3.41;60.95
13934;BME280;7039;52.168;9.866;2023-04-06T06:14:40;100879.41;;;3.57;60.45
13934;BME280;7039;52.168;9.866;2023-04-06T06:17:07;100881.78;;;3.71;60.15
13934;BME280;7039;52.168;9.866;2023-04-06T06:19:34;100879.03;;;3.82;59.30
13934;BME280;7039;52.168;9.866;2023-04-06T06:22:01;100884.88;;;3.93;58.47
13934;BME280;7039;52.168;9.866;2023-04-06T06:24:28;100884.66;;;4.07;57.92
13934;BME280;7039;52.168;9.866;2023-04-06T06:26:56;100882.63;;;4.24;57.79
13934;BME280;7039;52.168;9.866;2023-04-06T06:29:22;100880.75;;;4.34;56.47
13934;BME280;7039;52.168;9.866;2023-04-06T06:31:51;100879.44;;;4.58;55.84
13934;BME280;7039;52.168;9.866;2023-04-06T06:34:18;100881.09;;;4.60;55.68
13934;BME280;7039;52.168;9.866;2023-04-06T06:36:44;100887.59;;;4.81;55.64
13934;BME280;7039;52.168;9.866;2023-04-06T06:39:11;100885.59;;;4.96;55.57
13934;BME280;7039;52.168;9.866;2023-04-06T06:41:37;100876.34;;;4.84;54.98
13934;BME280;7039;52.168;9.866;2023-04-06T06:44:04;100881.06;;;5.07;54.79
13934;BME280;7039;52.168;9.866;2023-04-06T06:46:31;100882.72;;;5.10;55.37
13934;BME280;7039;52.168;9.866;2023-04-06T06:48:59;100883.25;;;5.26;55.27
13934;BME280;7039;52.168;9.866;2023-04-06T06:51:25;100884.94;;;5.27;54.72
13934;BME280;7039;52.168;9.866;2023-04-06T06:53:52;100881.31;;;5.35;54.85
13934;BME280;7039;52.168;9.866;2023-04-06T06:56:18;100881.72;;;5.56;54.13
13934;BME280;7039;52.168;9.866;2023-04-06T06:58:45;100869.38;;;5.67;53.75
13934;BME280;7039;52.168;9.866;2023-04-06T07:01:11;100883.66;;;5.83;53.78
13934;BME280;7039;52.168;9.866;2023-04-06T07:03:38;100876.56;;;5.92;53.09
13934;BME280;7039;52.168;9.866;2023-04-06T07:06:06;100878.19;;;5.97;52.96
13934;BME280;7039;52.168;9.866;2023-04-06T07:08:33;100879.53;;;6.12;53.26
13934;BME280;7039;52.168;9.866;2023-04-06T07:11:00;100867.13;;;5.89;52.81
13934;BME280;7039;52.168;9.866;2023-04-06T07:13:26;100874.34;;;6.14;52.50
13934;BME280;7039;52.168;9.866;2023-04-06T07:15:53;100871.03;;;6.07;52.83
13934;BME280;7039;52.168;9.866;2023-04-06T07:18:22;100868.09;;;6.21;52.94
13934;BME280;7039;52.168;9.866;2023-04-06T07:20:49;100872.09;;;6.34;52.68
13934;BME280;7039;52.168;9.866;2023-04-06T07:23:17;100869.16;;;6.46;52.39
13934;BME280;7039;52.168;9.866;2023-04-06T07:25:43;100867.94;;;6.60;52.16
13934;BME280;7039;52.168;9.866;2023-04-06T07:28:10;100866.41;;;6.53;51.88
13934;BME280;7039;52.168;9.866;2023-04-06T07:30:37;100863.47;;;6.65;51.36
13934;BME280;7039;52.168;9.866;2023-04-06T07:33:05;100864.63;;;6.55;51.94
13934;BME280;7039;52.168;9.866;2023-04-06T07:35:31;100864.41;;;6.62;51.89
13934;BME280;7039;52.168;9.866;2023-04-06T07:37:58;100854.97;;;6.60;51.86
13934;BME280;7039;52.168;9.866;2023-04-06T07:40:26;100867.00;;;6.94;51.42
13934;BME280;7039;52.168;9.866;2023-04-06T07:42:53;100860.13;;;6.61;51.35
13934;BME280;7039;52.168;9.866;2023-04-06T07:45:19;100864.41;;;6.62;51.21
13934;BME280;7039;52.168;9.866;2023-04-06T07:47:46;100862.13;;;6.83;51.30
13934;BME280;7039;52.168;9.866;2023-04-06T07:50:13;100853.22;;;6.92;51.10
13934;BME280;7039;52.168;9.866;2023-04-06T07:52:40;100863.59;;;6.92;50.92
13934;BME280;7039;52.168;9.866;2023-04-06T07:55:07;100861.50;;;7.04;51.08
13934;BME280;7039;52.168;9.866;2023-04-06T07:57:35;100854.00;;;7.25;50.26
13934;BME280;7039;52.168;9.866;2023-04-06T08:00:02;100851.00;;;7.09;49.66
13934;BME280;7039;52.168;9.866;2023-04-06T08:02:29;100854.78;;;7.27;50.58
13934;BME280;7039;52.168;9.866;2023-04-06T08:04:56;100858.06;;;7.60;50.11
13934;BME280;7039;52.168;9.866;2023-04-06T08:07:22;100855.25;;;7.68;48.56
13934;BME280;7039;52.168;9.866;2023-04-06T08:09:49;100853.16;;;7.79;49.00
13934;BME280;7039;52.168;9.866;2023-04-06T08:12:15;100853.72;;;7.89;49.43
13934;BME280;7039;52.168;9.866;2023-04-06T08:14:44;100856.75;;;8.02;48.71
13934;BME280;7039;52.168;9.866;2023-04-06T08:17:10;100846.72;;;7.91;47.47
13934;BME280;7039;52.168;9.866;2023-04-06T08:19:37;100853.56;;;8.19;47.87
13934;BME280;7039;52.168;9.866;2023-04-06T08:22:03;100845.03;;;8.15;48.19
13934;BME280;7039;52.168;9.866;2023-04-06T08:24:30;100846.91;;;8.11;47.20
13934;BME280;7039;52.168;9.866;2023-04-06T08:26:57;100848.94;;;8.53;47.01
13934;BME280;7039;52.168;9.866;2023-04-06T08:29:24;100836.63;;;8.59;45.88
13934;BME280;7039;52.168;9.866;2023-04-06T08:31:52;100843.19;;;8.92;46.63
13934;BME280;7039;52.168;9.866;2023-04-06T08:34:19;100839.25;;;8.82;46.51
13934;BME280;7039;52.168;9.866;2023-04-06T08:36:45;100845.34;;;9.05;46.15
13934;BME280;7039;52.168;9.866;2023-04-06T08:39:12;100842.06;;;8.99;45.96
13934;BME280;7039;52.168;9.866;2023-04-06T08:41:41;100840.13;;;9.05;46.35
13934;BME280;7039;52.168;9.866;2023-04-06T08:44:08;100840.56;;;9.16;45.97
13934;BME280;7039;52.168;9.866;2023-04-06T08:46:35;100834.69;;;8.87;44.37
13934;BME280;7039;52.168;9.866;2023-04-06T08:49:04;100841.97;;;9.25;44.52
13934;BME280;7039;52.168;9.866;2023-04-06T08:51:31;100831.38;;;9.29;45.52
13934;BME280;7039;52.168;9.866;2023-04-06T08:53:59;100843.78;;;9.67;44.77
13934;BME280;7039;52.168;9.866;2023-04-06T08:56:27;100829.69;;;9.72;43.83
13934;BME280;7039;52.168;9.866;2023-04-06T08:58:54;100828.09;;;9.90;43.47
13934;BME280;7039;52.168;9.866;2023-04-06T09:01:23;100829.31;;;9.81;43.26
13934;BME280;7039;52.168;9.866;2023-04-06T09:03:55;100826.84;;;9.56;43.59
13934;BME280;7039;52.168;9.866;2023-04-06T09:06:25;100833.53;;;9.84;43.53
13934;BME280;7039;52.168;9.866;2023-04-06T09:08:53;100829.19;;;9.62;42.98
13934;BME280;7039;52.168;9.866;2023-04-06T09:11:20;100822.34;;;9.60;42.84
13934;BME280;7039;52.168;9.866;2023-04-06T09:13:48;100824.38;;;9.74;42.81
13934;BME280;7039;52.168;9.866;2023-04-06T09:16:15;100826.56;;;9.85;42.82
13934;BME280;7039;52.168;9.866;2023-04-06T09:18:42;100818.16;;;9.98;42.60
13934;BME280;7039;52.168;9.866;2023-04-06T09:21:09;100820.38;;;9.87;42.39
13934;BME280;7039;52.168;9.866;2023-04-06T09:23:42;100823.44;;;9.97;41.94
13934;BME280;7039;52.168;9.866;2023-04-06T09:26:15;100820.00;;;9.96;41.90
13934;BME280;7039;52.168;9.866;2023-04-06T09:28:46;100837.19;;;10.21;42.85
13934;BME280;7039;52.168;9.866;2023-04-06T09:31:13;100832.53;;;10.09;42.65
13934;BME280;7039;52.168;9.866;2023-04-06T09:33:41;100830.03;;;10.06;42.86
13934;BME280;7039;52.168;9.866;2023-04-06T09:36:08;100833.59;;;10.23;41.27
13934;BME280;7039;52.168;9.866;2023-04-06T09:38:38;100833.50;;;10.47;42.19
13934;BME280;7039;52.168;9.866;2023-04-06T09:41:05;100822.16;;;10.28;41.75
13934;BME280;7039;52.168;9.866;2023-04-06T09:43:32;100821.47;;;10.63;42.76
13934;BME280;7039;52.168;9.866;2023-04-06T09:46:00;100824.03;;;11.03;43.21
13934;BME280;7039;52.168;9.866;2023-04-06T09:48:30;100810.56;;;10.93;42.45
13934;BME280;7039;52.168;9.866;2023-04-06T09:50:59;100803.91;;;10.67;41.60
13934;BME280;7039;52.168;9.866;2023-04-06T09:53:30;100810.34;;;10.98;43.22
13934;BME280;7039;52.168;9.866;2023-04-06T09:56:02;100805.47;;;11.09;42.08
13934;BME280;7039;52.168;9.866;2023-04-06T09:58:34;100803.16;;;10.84;41.85
13934;BME280;7039;52.168;9.866;2023-04-06T10:01:04;100806.03;;;10.97;41.03
13934;BME280;7039;52.168;9.866;2023-04-06T10:03:43;100797.03;;;11.04;40.75
13934;BME280;7039;52.168;9.866;2023-04-06T10:06:13;100809.72;;;10.93;40.05
13934;BME280;7039;52.168;9.866;2023-04-06T10:08:42;100809.34;;;11.00;40.11
13934;BME280;7039;52.168;9.866;2023-04-06T10:11:11;100801.38;;;11.22;40.24
13934;BME280;7039;52.168;9.866;2023-04-06T10:13:38;100805.69;;;11.77;41.12
13934;BME280;7039;52.168;9.866;2023-04-06T10:16:06;100801.47;;;11.75;41.19
13934;BME280;7039;52.168;9.866;2023-04-06T10:18:33;100798.72;;;11.95;40.21
13934;BME280;7039;52.168;9.866;2023-04-06T10:21:05;100788.69;;;11.68;39.61
13934;BME280;7039;52.168;9.866;2023-04-06T10:23:35;100792.00;;;11.72;39.62
13934;BME280;7039;52.168;9.866;2023-04-06T10:26:03;100802.78;;;11.83;40.57
13934;BME280;7039;52.168;9.866;2023-04-06T10:28:33;100796.22;;;11.75;40.20
13934;BME280;7039;52.168;9.866;2023-04-06T10:31:02;100801.88;;;12.02;39.15
13934;BME280;7039;52.168;9.866;2023-04-06T10:33:30;100793.44;;;11.78;38.48
13934;BME280;7039;52.168;9.866;2023-04-06T10:35:57;100799.38;;;11.64;38.32
13934;BME280;7039;52.168;9.866;2023-04-06T10:38:33;100783.94;;;11.77;38.58
13934;BME280;7039;52.168;9.866;2023-04-06T10:41:04;100790.53;;;11.84;38.25
13934;BME280;7039;52.168;9.866;2023-04-06T10:43:33;100793.88;;;12.05;39.41
13934;BME280;7039;52.168;9.866;2023-04-06T10:46:00;100784.00;;;12.10;39.31
13934;BME280;7039;52.168;9.866;2023-04-06T10:48:37;100790.03;;;11.95;37.95
13934;BME280;7039;52.168;9.866;2023-04-06T10:51:08;100786.78;;;12.07;38.32
13934;BME280;7039;52.168;9.866;2023-04-06T10:53:34;100777.28;;;12.06;37.56
13934;BME280;7039;52.168;9.866;2023-04-06T10:56:02;100781.63;;;12.05;38.34
13934;BME280;7039;52.168;9.866;2023-04-06T10:58:31;100784.38;;;12.53;38.53
13934;BME280;7039;52.168;9.866;2023-04-06T11:00:58;100786.94;;;12.70;38.91
13934;BME280;7039;52.168;9.866;2023-04-06T11:03:25;100778.28;;;12.37;37.48
13934;BME280;7039;52.168;9.866;2023-04-06T11:05:52;100785.16;;;12.71;37.61
13934;BME280;7039;52.168;9.866;2023-04-06T11:08:23;100765.66;;;12.61;36.68
13934;BME280;7039;52.168;9.866;2023-04-06T11:10:50;100779.03;;;12.88;37.26
13934;BME280;7039;52.168;9.866;2023-04-06T11:13:16;100770.16;;;13.06;37.12
13934;BME280;7039;52.168;9.866;2023-04-06T11:15:44;100778.16;;;13.35;37.65
13934;BME280;7039;52.168;9.866;2023-04-06T11:18:11;100763.56;;;13.15;37.45
13934;BME280;7039;52.168;9.866;2023-04-06T11:20:37;100774.56;;;12.90;37.60
13934;BME280;7039;52.168;9.866;2023-04-06T11:23:04;100775.41;;;13.38;37.51
13934;BME280;7039;52.168;9.866;2023-04-06T11:25:31;100773.53;;;13.40;37.34
13934;BME280;7039;52.168;9.866;2023-04-06T11:27:58;100763.56;;;13.47;37.55
13934;BME280;7039;52.168;9.866;2023-04-06T11:30:24;100764.44;;;14.06;37.86
13934;BME280;7039;52.168;9.866;2023-04-06T11:33:00;100763.88;;;14.15;37.60
13934;BME280;7039;52.168;9.866;2023-04-06T11:35:27;100760.84;;;13.78;36.21
13934;BME280;7039;52.168;9.866;2023-04-06T11:37:57;100753.53;;;13.53;37.01
13934;BME280;7039;52.168;9.866;2023-04-06T11:40:25;100762.56;;;13.64;37.52
13934;BME280;7039;52.168;9.866;2023-04-06T11:42:53;100753.94;;;14.06;37.29
13934;BME280;7039;52.168;9.866;2023-04-06T11:45:20;100757.31;;;14.23;36.84
13934;BME280;7039;52.168;9.866;2023-04-06T11:47:57;100755.34;;;14.40;37.29
13934;BME280;7039;52.168;9.866;2023-04-06T11:50:24;100751.59;;;14.30;36.93
13934;BME280;7039;52.168;9.866;2023-04-06T11:52:58;100748.25;;;14.43;36.32
13934;BME280;7039;52.168;9.866;2023-04-06T11:55:25;100739.41;;;14.00;36.61
13934;BME280;7039;52.168;9.866;2023-04-06T11:57:51;100728.66;;;14.19;36.70
13934;BME280;7039;52.168;9.866;2023-04-06T12:00:20;100747.00;;;14.05;35.51
13934;BME280;7039;52.168;9.866;2023-04-06T12:02:48;100747.09;;;14.04;35.91
13934;BME280;7039;52.168;9.866;2023-04-06T12:05:16;100744.69;;;14.29;35.85
13934;BME280;7039;52.168;9.866;2023-04-06T12:07:43;100738.69;;;14.13;36.50
13934;BME280;7039;52.168;9.866;2023-04-06T12:10:09;100731.66;;;14.56;35.61
13934;BME280;7039;52.168;9.866;2023-04-06T12:12:36;100737.81;;;14.41;35.34
13934;BME280;7039;52.168;9.866;2023-04-06T12:15:03;100735.19;;;14.41;35.90
13934;BME280;7039;52.168;9.866;2023-04-06T12:17:30;100726.00;;;15.04;35.41
13934;BME280;7039;52.168;9.866;2023-04-06T12:19:56;100731.44;;;15.28;36.09
13934;BME280;7039;52.168;9.866;2023-04-06T12:22:24;100727.06;;;15.41;36.82
13934;BME280;7039;52.168;9.866;2023-04-06T12:24:51;100722.53;;;14.76;35.65
13934;BME280;7039;52.168;9.866;2023-04-06T12:27:17;100715.44;;;14.91;35.67
13934;BME280;7039;52.168;9.866;2023-04-06T12:29:44;100721.81;;;14.87;35.47
13934;BME280;7039;52.168;9.866;2023-04-06T12:32:10;100716.38;;;15.17;35.26
13934;BME280;7039;52.168;9.866;2023-04-06T12:34:37;100711.13;;;15.17;34.76
13934;BME280;7039;52.168;9.866;2023-04-06T12:37:04;100701.72;;;15.40;34.96
13934;BME280;7039;52.168;9.866;2023-04-06T12:39:32;100716.56;;;15.54;35.85
13934;BME280;7039;52.168;9.866;2023-04-06T12:41:59;100705.84;;;15.57;34.63
13934;BME280;7039;52.168;9.866;2023-04-06T12:44:26;100706.59;;;16.23;36.51
13934;BME280;7039;52.168;9.866;2023-04-06T12:46:53;100708.84;;;16.66;35.93
13934;BME280;7039;52.168;9.866;2023-04-06T12:49:20;100689.78;;;16.13;34.48
13934;BME280;7039;52.168;9.866;2023-04-06T12:51:47;100690.75;;;15.86;34.77
13934;BME280;7039;52.168;9.866;2023-04-06T12:54:13;100698.53;;;16.01;33.62
13934;BME280;7039;52.168;9.866;2023-04-06T12:56:41;100690.94;;;16.22;33.93
13934;BME280;7039;52.168;9.866;2023-04-06T12:59:08;100687.84;;;16.41;33.53
13934;BME280;7039;52.168;9.866;2023-04-06T13:01:35;100685.19;;;17.15;33.23
13934;BME280;7039;52.168;9.866;2023-04-06T13:04:01;100693.56;;;16.72;33.14
13934;BME280;7039;52.168;9.866;2023-04-06T13:06:28;100690.22;;;17.18;33.28
13934;BME280;7039;52.168;9.866;2023-04-06T13:08:55;100683.06;;;17.31;32.34